Time;durP1;ratioP1;P1;durP2;ratioP2;P2;SDS_P1;SDS_P2;PMS_P1;PMS_P2;Temp;Humidity;BMP_temperature;BMP_pressure;BME280_temperature;BME280_humidity;BME280_pressure;Samples;Min_cycle;Max_cycle;Signal;HPM_P1;HPM_P2
2021/09/21 00:01:34;;;;;;;2.17;2.07;;;;;;;8.74;78.87;100045.33;1710309;81;21465;-68
2021/09/21 00:04:00;;;;;;;;;;;;;;;8.71;79.12;100038.22;1722687;81;21066;-64
2021/09/21 00:06:27;;;;;;;1.10;1.10;;;;;;;8.68;78.98;100039.42;1719711;81;20138;-67
2021/09/21 00:08:53;;;;;;;1.50;1.40;;;;;;;8.60;78.83;100032.04;1718761;81;21014;-68
2021/09/21 00:11:22;;;;;;;1.90;1.80;;;;;;;8.72;78.51;100046.02;1725698;82;21079;-60
2021/09/21 00:13:50;;;;;;;2.10;2.00;;;;;;;8.75;77.53;100046.95;1725726;83;21060;-67
2021/09/21 00:16:18;;;;;;;1.37;1.37;;;;;;;8.75;77.75;100044.30;1727751;83;21110;-60
2021/09/21 00:18:45;;;;;;;;;;;;;;;8.75;77.89;100039.50;1718946;83;20995;-68
2021/09/21 00:21:14;;;;;;;2.30;1.90;;;;;;;8.72;77.77;100040.70;1724316;83;20103;-60
2021/09/21 00:23:41;;;;;;;1.53;1.43;;;;;;;8.69;77.69;100053.02;1718532;82;20990;-65
2021/09/21 00:26:08;;;;;;;1.30;1.30;;;;;;;8.75;77.20;100045.63;1712175;82;21107;-67
2021/09/21 00:28:34;;;;;;;2.33;0.87;;;;;;;8.77;75.81;100042.28;1709353;82;21008;-60
2021/09/21 00:31:08;;;;;;;1.33;1.07;;;;;;;8.75;75.21;100046.95;1719988;82;21564;-63
2021/09/21 00:33:45;;;;;;;4.10;1.07;;;;;;;8.67;75.93;100049.72;1687466;83;21462;-61
2021/09/21 00:36:00;;;;;;;0.90;0.90;;;;;;;8.58;75.74;100046.31;1708305;83;21652;-63
2021/09/21 00:38:27;;;;;;;0.62;0.62;;;;;;;8.56;75.99;100044.86;1706274;82;21123;-62
2021/09/21 00:40:53;;;;;;;2.20;0.50;;;;;;;8.56;75.51;100048.33;1687247;83;21121;-64
2021/09/21 00:43:22;;;;;;;0.75;0.68;;;;;;;8.58;75.14;100049.48;1708526;82;21044;-68
2021/09/21 00:45:52;;;;;;;2.30;1.20;;;;;;;8.55;75.29;100046.70;1737688;81;21506;-62
2021/09/21 00:48:21;;;;;;;1.30;0.50;;;;;;;8.55;75.62;100049.84;1729274;81;21057;-67
2021/09/21 00:50:49;;;;;;;4.10;0.70;;;;;;;8.54;76.02;100057.50;1736336;81;20990;-64
2021/09/21 00:53:18;;;;;;;0.40;0.40;;;;;;;8.45;75.60;100047.45;1747098;81;21548;-62
2021/09/21 00:55:47;;;;;;;0.57;0.33;;;;;;;8.51;75.27;100055.20;1729792;81;21084;-66
2021/09/21 00:58:13;;;;;;;0.50;0.50;;;;;;;8.53;75.33;100059.82;1700553;82;21041;-64
2021/09/21 01:00:40;;;;;;;0.50;0.50;;;;;;;8.56;75.33;100062.95;1693529;82;21146;-67
2021/09/21 01:03:06;;;;;;;0.73;0.60;;;;;;;8.56;75.20;100066.11;1660425;84;21065;-59
2021/09/21 01:05:35;;;;;;;1.32;0.93;;;;;;;8.49;75.02;100063.85;1645044;86;21039;-62
2021/09/21 01:08:01;;;;;;;1.87;1.43;;;;;;;8.46;75.32;100065.56;1649416;85;21551;-66
2021/09/21 01:10:29;;;;;;;0.93;0.90;;;;;;;8.41;74.97;100059.93;1626412;85;21014;-66
2021/09/21 01:12:57;;;;;;;1.03;0.90;;;;;;;8.41;75.01;100059.93;1678340;83;21121;-60
2021/09/21 01:15:24;;;;;;;0.80;0.80;;;;;;;8.46;74.72;100061.58;1683774;83;21423;-62
2021/09/21 01:17:55;;;;;;;1.53;1.20;;;;;;;8.50;74.79;100066.84;1660509;84;20999;-61
2021/09/21 01:20:22;;;;;;;1.30;1.30;;;;;;;8.51;74.70;100067.15;1693951;83;21210;-62
2021/09/21 01:22:50;;;;;;;1.20;1.10;;;;;;;8.47;74.66;100069.34;1677265;83;21076;-67
2021/09/21 01:25:18;;;;;;;0.70;0.70;;;;;;;8.42;74.42;100067.75;1714670;82;21180;-67
2021/09/21 01:27:44;;;;;;;1.67;1.57;;;;;;;8.36;74.57;100068.42;1707674;83;21069;-59
2021/09/21 01:30:13;;;;;;;1.10;1.00;;;;;;;8.37;74.08;100065.59;1689467;83;21180;-61
2021/09/21 01:32:40;;;;;;;1.23;1.20;;;;;;;8.37;74.16;100066.92;1701018;83;21122;-66
2021/09/21 01:35:09;;;;;;;2.00;1.17;;;;;;;8.37;74.27;100064.77;1684795;83;21045;-62
2021/09/21 01:37:39;;;;;;;4.60;1.40;;;;;;;8.34;74.11;100069.11;1666621;84;21625;-64
2021/09/21 01:40:07;;;;;;;1.63;1.53;;;;;;;8.32;74.09;100071.13;1695048;84;21837;-62
2021/09/21 01:42:33;;;;;;;1.90;1.80;;;;;;;8.28;74.29;100065.34;1680237;84;21052;-60
2021/09/21 01:44:59;;;;;;;1.50;0.95;;;;;;;8.31;74.29;100068.98;1661451;82;21085;-64
2021/09/21 01:47:26;;;;;;;4.62;1.05;;;;;;;8.32;73.98;100067.14;1663121;83;20976;-66
2021/09/21 01:52:26;;;;;;;1.23;1.10;;;;;;;8.21;74.49;100072.88;1665799;83;21089;-64
2021/09/21 01:55:05;;;;;;;1.43;0.90;;;;;;;8.16;74.79;100076.91;1663127;83;21093;-61
2021/09/21 02:00:04;;;;;;;0.70;0.70;;;;;;;8.26;74.45;100068.68;1672553;83;21078;-62
2021/09/21 02:02:32;;;;;;;2.20;1.37;;;;;;;8.27;74.35;100075.66;1676564;83;21082;-64
2021/09/21 02:05:00;;;;;;;1.77;1.00;;;;;;;8.28;74.05;100075.96;1666624;83;21559;-65
2021/09/21 02:07:26;;;;;;;0.80;0.80;;;;;;;8.24;74.09;100079.98;1654527;83;21014;-60
2021/09/21 02:09:52;;;;;;;1.30;1.30;;;;;;;8.20;74.00;100076.05;1669570;83;21615;-65
2021/09/21 02:12:19;;;;;;;1.20;0.80;;;;;;;8.17;73.81;100080.38;1691090;82;21064;-65
2021/09/21 02:14:46;;;;;;;1.13;0.83;;;;;;;8.18;73.86;100087.34;1707671;82;21216;-64
2021/09/21 02:17:12;;;;;;;2.15;0.72;;;;;;;8.21;73.27;100084.83;1702165;82;20996;-65
2021/09/21 02:19:40;;;;;;;0.67;0.67;;;;;;;8.21;73.36;100084.31;1705535;82;21698;-66
2021/09/21 02:22:08;;;;;;;0.83;0.70;;;;;;;8.18;72.97;100074.08;1703342;81;21085;-66
2021/09/21 02:24:35;;;;;;;0.80;0.80;;;;;;;8.13;73.35;100079.91;1693297;83;21058;-62
2021/09/21 02:27:02;;;;;;;3.62;0.80;;;;;;;8.11;73.47;100083.75;1689366;83;21031;-66
2021/09/21 02:29:28;;;;;;;0.80;0.80;;;;;;;8.09;73.41;100079.94;1690637;83;21392;-65
2021/09/21 02:31:55;;;;;;;;;;;;;;;8.11;73.12;100079.77;1694673;83;21014;-64
2021/09/21 02:34:21;;;;;;;0.40;0.40;;;;;;;8.14;72.97;100082.89;1681280;81;20210;-59
2021/09/21 02:36:46;;;;;;;0.53;0.45;;;;;;;8.11;72.69;100085.08;1670028;84;21107;-59
2021/09/21 02:39:13;;;;;;;0.88;0.88;;;;;;;8.08;72.65;100089.41;1675263;84;21075;-61
2021/09/21 02:41:40;;;;;;;1.53;0.43;;;;;;;8.03;72.94;100087.81;1672481;84;21134;-59
2021/09/21 02:44:07;;;;;;;0.75;0.62;;;;;;;7.99;73.27;100090.80;1674184;84;21060;-60
2021/09/21 02:46:34;;;;;;;1.10;0.70;;;;;;;7.98;73.76;100090.47;1689991;83;21542;-63
2021/09/21 02:49:02;;;;;;;2.27;0.70;;;;;;;8.05;73.44;100087.13;1696639;83;21027;-59
2021/09/21 02:51:28;;;;;;;1.60;1.10;;;;;;;8.08;73.07;100086.75;1692797;83;21364;-65
2021/09/21 02:53:56;;;;;;;1.00;0.60;;;;;;;8.06;73.14;100090.09;1688025;83;21177;-60
2021/09/21 02:56:24;;;;;;;0.77;0.67;;;;;;;8.05;73.45;100091.11;1685932;82;21497;-60
2021/09/21 02:58:51;;;;;;;;;;;;;;;8.04;73.51;100090.77;1645760;85;21126;-67
2021/09/21 03:01:20;;;;;;;1.57;0.90;;;;;;;8.05;73.77;100081.81;1688962;82;20119;-59
2021/09/21 03:03:53;;;;;;;0.70;0.50;;;;;;;8.04;73.68;100088.12;1678441;83;21053;-59
2021/09/21 03:06:28;;;;;;;0.53;0.50;;;;;;;8.11;73.18;100089.06;1658474;83;21041;-59
2021/09/21 03:08:58;;;;;;;1.63;0.73;;;;;;;8.15;73.41;100093.00;1668470;83;21063;-59
2021/09/21 03:11:23;;;;;;;1.23;0.80;;;;;;;8.13;73.50;100100.33;1688571;83;21205;-59
2021/09/21 03:19:10;;;;;;;1.30;0.60;;;;;;;8.16;73.07;100094.16;1720800;82;21111;-60
2021/09/21 03:21:38;;;;;;;0.30;0.23;;;;;;;8.22;72.56;100093.12;1700544;83;21006;-62
2021/09/21 03:24:04;;;;;;;0.70;0.70;;;;;;;8.22;72.46;100101.09;1676626;82;21057;-62
2021/09/21 03:26:31;;;;;;;1.57;0.53;;;;;;;8.20;72.33;100101.27;1672864;84;21148;-60
2021/09/21 03:28:57;;;;;;;0.78;0.60;;;;;;;8.17;72.50;100101.61;1660249;84;21208;-59
2021/09/21 03:31:23;;;;;;;;;;;;;;;8.17;72.79;100101.61;1743285;81;21068;-62
2021/09/21 03:33:49;;;;;;;0.60;0.40;;;;;;;8.11;72.60;100107.13;1714086;82;20187;-60
2021/09/21 03:36:15;;;;;;;0.93;0.60;;;;;;;8.06;72.85;100107.34;1710145;82;21115;-61
2021/09/21 03:38:45;;;;;;;4.67;0.60;;;;;;;8.02;73.21;100094.11;1660981;84;21117;-62
2021/09/21 03:41:12;;;;;;;1.27;0.50;;;;;;;7.99;73.35;100105.41;1669683;84;22236;-59
2021/09/21 03:43:38;;;;;;;0.62;0.57;;;;;;;7.97;73.95;100102.61;1671232;84;21607;-63
2021/09/21 03:46:04;;;;;;;0.70;0.65;;;;;;;7.91;74.21;100104.63;1678665;84;21586;-61
2021/09/21 03:48:32;;;;;;;0.40;0.40;;;;;;;7.91;74.50;100104.14;1665897;85;21597;-61
2021/09/21 03:50:58;;;;;;;2.50;0.50;;;;;;;7.97;74.68;100099.96;1704047;84;21013;-60
2021/09/21 03:53:24;;;;;;;0.70;0.65;;;;;;;8.02;74.85;100101.56;1701800;83;21111;-60
2021/09/21 03:55:52;;;;;;;1.83;1.27;;;;;;;8.07;74.96;100101.05;1699186;83;21165;-62
2021/09/21 03:58:20;;;;;;;1.47;1.20;;;;;;;8.09;74.78;100098.52;1685456;83;21038;-59
2021/09/21 04:00:48;;;;;;;0.60;0.60;;;;;;;8.09;75.04;100097.20;1679714;83;21172;-61
2021/09/21 04:03:14;;;;;;;2.63;0.73;;;;;;;8.08;75.50;100102.68;1671719;84;21041;-61
2021/09/21 04:05:41;;;;;;;0.78;0.60;;;;;;;8.07;75.21;100098.39;1672023;84;21041;-60
2021/09/21 04:08:09;;;;;;;1.90;0.50;;;;;;;8.10;75.12;100101.52;1675136;84;21115;-61
2021/09/21 04:10:35;;;;;;;2.33;0.70;;;;;;;8.11;74.96;100097.02;1672260;84;21231;-61
2021/09/21 04:13:03;;;;;;;0.40;0.30;;;;;;;8.10;75.03;100096.69;1673280;84;21638;-60
2021/09/21 04:15:30;;;;;;;0.70;0.70;;;;;;;8.07;75.17;100097.06;1668523;84;21100;-60
2021/09/21 04:17:56;;;;;;;0.60;0.43;;;;;;;8.05;75.10;100100.40;1675518;84;21097;-62
2021/09/21 04:20:23;;;;;;;;;;;;;;;8.03;75.03;100095.77;1675656;84;21089;-64
2021/09/21 04:22:50;;;;;;;0.47;0.40;;;;;;;8.01;75.12;100101.77;1672519;84;20140;-62
2021/09/21 04:25:16;;;;;;;0.28;0.28;;;;;;;7.99;75.49;100099.28;1676773;85;21053;-67
2021/09/21 04:27:42;;;;;;;0.75;0.47;;;;;;;8.03;75.21;100099.75;1676634;84;21124;-63
2021/09/21 04:30:17;;;;;;;0.60;0.37;;;;;;;7.89;74.65;100100.84;1675801;84;21587;-60
2021/09/21 04:32:39;;;;;;;6.57;0.50;;;;;;;7.77;75.00;100103.56;1665387;84;21169;-58
2021/09/21 04:35:07;;;;;;;2.83;0.40;;;;;;;7.68;75.63;100097.47;1689290;83;21076;-60
2021/09/21 04:37:33;;;;;;;0.77;0.30;;;;;;;7.66;75.97;100103.97;1700145;83;21582;-60
2021/09/21 04:39:59;;;;;;;0.68;0.57;;;;;;;7.72;76.06;100107.23;1702706;83;21051;-58
2021/09/21 04:42:25;;;;;;;0.28;0.28;;;;;;;7.73;75.75;100104.42;1703362;83;21042;-59
2021/09/21 04:44:53;;;;;;;0.20;0.20;;;;;;;7.73;75.80;100108.39;1708146;83;21073;-63
2021/09/21 04:47:20;;;;;;;2.00;0.30;;;;;;;7.73;76.12;100102.27;1708084;83;21254;-60
2021/09/21 04:49:48;;;;;;;0.50;0.20;;;;;;;7.73;76.11;100098.30;1699181;83;21041;-63
2021/09/21 04:52:15;;;;;;;1.32;0.50;;;;;;;7.71;76.24;100097.14;1703318;83;21027;-61
2021/09/21 04:54:42;;;;;;;1.07;0.40;;;;;;;7.75;76.38;100098.43;1707437;83;21014;-60
2021/09/21 04:57:11;;;;;;;1.43;0.57;;;;;;;7.85;76.14;100102.69;1702917;83;21156;-64
2021/09/21 04:59:38;;;;;;;1.03;0.33;;;;;;;7.94;76.03;100098.47;1699636;83;21088;-61
2021/09/21 05:02:04;;;;;;;0.60;0.30;;;;;;;8.00;76.19;100103.56;1702985;82;21083;-62
2021/09/21 05:04:30;;;;;;;1.07;0.57;;;;;;;8.01;75.96;100101.25;1707326;82;21056;-59
2021/09/21 05:06:57;;;;;;;1.87;0.67;;;;;;;7.99;75.21;100098.77;1701594;82;21092;-62
2021/09/21 05:09:24;;;;;;;0.33;0.30;;;;;;;7.94;75.11;100100.30;1712356;82;21095;-60
2021/09/21 05:11:51;;;;;;;0.30;0.20;;;;;;;7.97;75.22;100106.09;1709669;80;21068;-60
2021/09/21 05:14:19;;;;;;;2.87;0.60;;;;;;;8.03;75.32;100105.06;1702327;82;21115;-60
2021/09/21 05:16:47;;;;;;;1.17;0.53;;;;;;;8.06;75.12;100101.55;1731027;81;21060;-64
2021/09/21 05:19:15;;;;;;;1.13;0.63;;;;;;;8.07;75.59;100102.38;1709641;82;21081;-63
2021/09/21 05:21:42;;;;;;;0.55;0.30;;;;;;;8.09;75.40;100099.03;1719122;82;21152;-61
2021/09/21 05:24:09;;;;;;;0.87;0.20;;;;;;;8.12;74.26;100098.69;1728601;81;21591;-65
2021/09/21 05:26:37;;;;;;;1.70;0.20;;;;;;;8.18;73.90;100108.08;1730117;81;21070;-62
2021/09/21 05:29:04;;;;;;;0.30;0.23;;;;;;;8.32;73.86;100109.11;1728395;81;21429;-62
2021/09/21 05:31:32;;;;;;;0.33;0.33;;;;;;;8.42;73.35;100095.64;1731006;81;21129;-61
2021/09/21 05:34:00;;;;;;;0.47;0.47;;;;;;;8.43;73.12;100102.59;1724373;81;21618;-67
2021/09/21 05:36:27;;;;;;;0.97;0.27;;;;;;;8.08;72.84;100037.64;1716964;82;21017;-65
2021/09/21 05:38:53;;;;;;;1.27;0.40;;;;;;;8.41;72.73;100091.80;1731722;81;21109;-65
2021/09/21 05:41:20;;;;;;;;;;;;;;;8.40;72.61;100094.97;1730058;81;21066;-62
2021/09/21 05:43:47;;;;;;;;;;;;;;;8.44;72.50;100097.61;1721505;81;20140;-64
2021/09/21 05:46:13;;;;;;;0.90;0.30;;;;;;;8.41;72.07;100081.99;1708975;81;20212;-59
2021/09/21 05:48:40;;;;;;;1.90;0.30;;;;;;;8.41;71.78;100102.42;1705462;82;21124;-63
2021/09/21 05:51:07;;;;;;;1.40;0.62;;;;;;;8.32;72.26;100105.13;1710934;82;21102;-63
2021/09/21 05:53:33;;;;;;;0.93;0.50;;;;;;;8.30;72.39;100096.52;1710152;82;21123;-63
2021/09/21 05:55:59;;;;;;;1.35;0.35;;;;;;;8.26;72.62;100099.22;1709362;82;21618;-65
2021/09/21 05:58:25;;;;;;;1.32;0.33;;;;;;;8.30;72.79;100091.20;1686449;82;20966;-61
2021/09/21 06:00:53;;;;;;;1.70;0.80;;;;;;;8.41;72.84;100095.78;1707380;82;21116;-62
2021/09/21 06:03:19;;;;;;;0.60;0.50;;;;;;;8.43;72.45;100097.27;1706408;82;21128;-64
2021/09/21 06:05:48;;;;;;;0.83;0.47;;;;;;;8.42;72.29;100092.14;1711396;82;21532;-61
2021/09/21 06:08:14;;;;;;;2.03;0.90;;;;;;;8.39;72.63;100104.74;1718861;82;21072;-66
2021/09/21 06:10:42;;;;;;;5.10;1.40;;;;;;;8.35;71.85;100090.69;1700482;82;21121;-62
2021/09/21 06:13:08;;;;;;;4.67;1.60;;;;;;;8.32;72.24;100102.48;1697449;82;21044;-61
2021/09/21 06:15:35;;;;;;;0.87;0.50;;;;;;;8.40;72.27;100105.59;1686441;82;21136;-61
2021/09/21 06:18:02;;;;;;;2.87;0.50;;;;;;;8.46;71.81;100089.47;1702716;82;21346;-62
2021/09/21 06:20:30;;;;;;;2.40;1.53;;;;;;;8.50;71.68;100104.03;1686238;82;21051;-61
2021/09/21 06:22:58;;;;;;;4.57;0.50;;;;;;;8.48;71.62;100108.70;1696320;82;21169;-61
2021/09/21 06:25:24;;;;;;;0.72;0.72;;;;;;;8.45;71.85;100107.73;1706706;82;21057;-59
2021/09/21 06:27:50;;;;;;;2.60;1.25;;;;;;;8.45;72.11;100107.22;1707702;82;21033;-63
2021/09/21 06:30:18;;;;;;;1.35;0.70;;;;;;;8.43;72.20;100110.55;1705534;83;21191;-67
2021/09/21 06:32:47;;;;;;;0.83;0.40;;;;;;;8.47;72.28;100111.84;1709003;82;21511;-62
2021/09/21 06:35:14;;;;;;;1.50;0.30;;;;;;;8.54;71.38;100107.98;1682564;83;21742;-61
2021/09/21 06:37:40;;;;;;;0.63;0.23;;;;;;;8.50;70.64;100110.67;1680010;84;20982;-61
2021/09/21 06:40:09;;;;;;;3.08;0.88;;;;;;;8.36;70.76;100111.77;1678625;84;21536;-64
2021/09/21 06:42:36;;;;;;;7.87;1.67;;;;;;;8.25;70.87;100108.20;1678222;84;20982;-63
2021/09/21 06:45:04;;;;;;;5.60;1.00;;;;;;;8.23;71.36;100118.66;1700179;81;21060;-65
2021/09/21 06:47:31;;;;;;;2.73;0.80;;;;;;;8.26;71.30;100111.16;1732151;81;21895;-71
2021/09/21 06:50:00;;;;;;;3.83;0.57;;;;;;;8.30;71.43;100111.13;1733881;81;21069;-64
2021/09/21 06:52:33;;;;;;;4.53;0.70;;;;;;;8.38;71.74;100111.08;1732824;81;20978;-65
2021/09/21 06:54:59;;;;;;;0.60;0.50;;;;;;;8.42;71.00;100115.56;1731595;81;21094;-66
2021/09/21 06:57:25;;;;;;;2.17;1.70;;;;;;;8.43;71.24;100120.36;1706057;81;21025;-67
2021/09/21 06:59:56;;;;;;;;;;;;;;;8.47;70.84;100113.68;1705636;84;21030;-61
2021/09/21 07:02:21;;;;;;;2.67;0.90;;;;;;;8.45;70.69;100119.67;1677521;83;20167;-70
2021/09/21 07:04:47;;;;;;;;;;;;;;;8.39;71.11;100125.17;1677995;84;21065;-65
2021/09/21 07:07:13;;;;;;;3.50;0.90;;;;;;;8.39;71.24;100124.66;1674398;84;20089;-74
2021/09/21 07:09:39;;;;;;;;;;;;;;;8.41;71.00;100125.00;1676961;84;21029;-66
2021/09/21 07:12:08;;;;;;;0.30;0.30;;;;;;;8.42;70.47;100130.65;1672250;84;20137;-65
2021/09/21 07:14:36;;;;;;;1.23;0.50;;;;;;;8.33;70.29;100139.99;1672986;84;21132;-69
2021/09/21 07:17:03;;;;;;;1.10;1.03;;;;;;;8.30;70.68;100132.37;1674489;84;21076;-67
2021/09/21 07:19:30;;;;;;;1.40;0.40;;;;;;;8.22;70.38;100131.13;1671001;84;21087;-72
2021/09/21 07:21:57;;;;;;;0.37;0.20;;;;;;;8.20;70.56;100139.77;1667803;85;21065;-67
2021/09/21 07:24:24;;;;;;;;;;;;;;;8.28;70.78;100141.02;1709253;82;21048;-69
2021/09/21 07:26:51;;;;;;;0.80;0.20;;;;;;;8.35;70.74;100147.28;1703679;82;20451;-67
2021/09/21 07:29:19;;;;;;;2.30;0.60;;;;;;;8.35;70.34;100145.13;1718862;82;21124;-64
2021/09/21 07:31:45;;;;;;;2.50;0.50;;;;;;;8.32;70.51;100142.82;1710250;82;21138;-61
2021/09/21 07:34:12;;;;;;;1.23;0.70;;;;;;;8.27;70.26;100143.84;1704036;83;21050;-61
2021/09/21 07:36:38;;;;;;;0.40;0.23;;;;;;;8.21;70.43;100143.23;1696549;83;21033;-61
2021/09/21 07:39:05;;;;;;;2.42;0.40;;;;;;;8.17;70.76;100136.13;1697718;83;22066;-62
2021/09/21 07:41:32;;;;;;;0.57;0.20;;;;;;;8.21;70.93;100137.42;1701112;83;21038;-60
2021/09/21 07:43:58;;;;;;;;;;;;;;;8.32;70.87;100147.62;1704579;83;20983;-60
2021/09/21 07:46:24;;;;;;;0.87;0.20;;;;;;;8.41;70.85;100154.22;1695883;83;20243;-73
2021/09/21 07:48:50;;;;;;;3.55;0.23;;;;;;;8.35;71.08;100145.13;1692206;83;21906;-59
2021/09/21 07:51:17;;;;;;;;;;;;;;;8.33;70.86;100151.12;1700907;83;21606;-58
2021/09/21 07:53:43;;;;;;;1.50;0.53;;;;;;;8.31;71.20;100146.50;1700531;83;20487;-61
2021/09/21 07:56:09;;;;;;;3.55;2.00;;;;;;;8.28;71.46;100148.17;1699004;83;21013;-61
2021/09/21 07:58:36;;;;;;;4.53;0.50;;;;;;;8.36;71.29;100146.77;1711814;83;21223;-61
2021/09/21 08:01:02;;;;;;;3.62;0.30;;;;;;;8.48;70.86;100141.40;1696883;83;21080;-59
2021/09/21 08:03:31;;;;;;;0.30;0.20;;;;;;;8.52;70.43;100142.69;1688157;83;21135;-57
2021/09/21 08:05:57;;;;;;;2.97;0.50;;;;;;;8.51;70.14;100151.67;1672412;84;21124;-61
2021/09/21 08:08:23;;;;;;;1.40;0.30;;;;;;;8.51;70.14;100141.53;1684219;84;21055;-61
2021/09/21 08:10:50;;;;;;;0.60;0.30;;;;;;;8.53;69.89;100140.84;1662002;84;21101;-61
2021/09/21 08:13:16;;;;;;;2.50;0.35;;;;;;;8.52;69.79;100141.87;1652992;84;21048;-62
2021/09/21 08:16:33;;;;;;;0.60;0.37;;;;;;;8.63;70.08;100138.78;1785825;79;23304;-62
2021/09/21 08:19:02;;;;;;;1.00;0.30;;;;;;;8.62;70.44;100150.39;1741346;80;21544;-60
2021/09/21 08:21:28;;;;;;;0.63;0.40;;;;;;;8.52;71.93;100143.20;1750783;81;21124;-60
2021/09/21 08:23:55;;;;;;;0.35;0.30;;;;;;;8.40;72.82;100146.76;1697951;82;21685;-59
2021/09/21 08:26:21;;;;;;;2.30;0.23;;;;;;;8.35;72.22;100143.30;1702403;83;21638;-58
2021/09/21 08:28:48;;;;;;;2.40;0.30;;;;;;;8.36;72.58;100144.11;1671912;84;21588;-58
2021/09/21 08:31:16;;;;;;;2.00;0.70;;;;;;;8.36;72.95;100148.09;1668935;84;21050;-58
2021/09/21 08:33:43;;;;;;;1.07;0.77;;;;;;;8.33;73.52;100147.96;1699867;81;21105;-61
2021/09/21 08:36:11;;;;;;;4.10;0.40;;;;;;;8.27;73.49;100138.06;1695470;83;21164;-58
2021/09/21 08:38:37;;;;;;;;;;;;;;;8.26;73.90;100145.69;1700295;83;21622;-57
2021/09/21 08:41:04;;;;;;;2.73;0.47;;;;;;;8.30;73.52;100140.84;1667706;84;20144;-56
2021/09/21 08:43:30;;;;;;;0.72;0.25;;;;;;;8.33;73.26;100137.34;1648124;86;21073;-58
2021/09/21 08:45:58;;;;;;;0.50;0.37;;;;;;;8.38;72.79;100141.63;1661943;84;21037;-59
2021/09/21 08:48:28;;;;;;;1.43;0.30;;;;;;;8.40;72.61;100144.10;1643130;86;21629;-58
2021/09/21 08:50:54;;;;;;;1.43;1.03;;;;;;;8.41;73.13;100149.72;1644797;86;21043;-58
2021/09/21 08:53:20;;;;;;;3.30;1.02;;;;;;;8.42;72.83;100152.75;1664748;84;21607;-58
2021/09/21 08:55:48;;;;;;;1.50;0.60;;;;;;;8.43;72.62;100149.58;1641408;86;21550;-60
2021/09/21 08:58:14;;;;;;;0.63;0.63;;;;;;;8.48;72.65;100148.55;1668078;84;21022;-56
2021/09/21 09:00:41;;;;;;;1.22;0.57;;;;;;;8.55;72.43;100147.66;1647479;86;21073;-57
2021/09/21 09:03:12;;;;;;;0.55;0.30;;;;;;;8.56;71.97;100143.16;1688219;83;21071;-57
2021/09/21 09:05:54;;;;;;;0.20;0.20;;;;;;;8.61;71.04;100159.39;1663958;85;21111;-58
2021/09/21 09:08:38;;;;;;;3.03;0.60;;;;;;;8.54;70.72;100154.47;1677866;84;21150;-56
2021/09/21 09:11:21;;;;;;;0.93;0.43;;;;;;;8.45;71.21;100166.98;1657144;83;21029;-58
2021/09/21 09:13:53;;;;;;;1.60;0.57;;;;;;;8.42;71.35;100163.38;1663880;84;21104;-58
2021/09/21 09:16:22;;;;;;;1.53;1.00;;;;;;;8.45;71.34;100165.65;1665201;84;21033;-56
2021/09/21 09:19:06;;;;;;;2.40;0.30;;;;;;;8.50;70.92;100157.98;1668956;84;21143;-57
2021/09/21 09:21:38;;;;;;;1.53;0.40;;;;;;;8.49;71.08;100170.92;1647254;85;21089;-56
2021/09/21 09:24:08;;;;;;;4.50;0.90;;;;;;;8.49;71.34;100173.58;1652320;85;21448;-57
2021/09/21 09:26:38;;;;;;;2.97;0.63;;;;;;;8.52;71.10;100172.42;1696205;83;21198;-58
2021/09/21 09:29:09;;;;;;;4.03;0.83;;;;;;;8.55;71.22;100173.37;1653904;85;21096;-57
2021/09/21 09:31:36;;;;;;;2.60;1.30;;;;;;;8.61;71.10;100171.83;1659278;85;21583;-57
2021/09/21 09:34:24;;;;;;;10.43;0.87;;;;;;;8.73;70.74;100175.20;1669060;84;21143;-57
2021/09/21 09:36:55;;;;;;;0.37;0.30;;;;;;;8.81;70.64;100163.67;1668565;84;21063;-57
2021/09/21 09:39:29;;;;;;;1.47;0.50;;;;;;;8.84;69.58;100173.95;1676232;84;21111;-60
2021/09/21 09:41:59;;;;;;;1.03;0.57;;;;;;;8.79;69.53;100171.00;1675265;84;21063;-58
2021/09/21 09:44:31;;;;;;;5.13;3.73;;;;;;;8.74;69.69;100163.58;1664059;81;21083;-57
2021/09/21 09:47:05;;;;;;;2.57;1.17;;;;;;;8.75;69.71;100171.05;1653769;85;21136;-58
2021/09/21 09:49:41;;;;;;;2.67;0.40;;;;;;;8.75;69.38;100171.86;1626348;86;21183;-57
2021/09/21 09:52:15;;;;;;;3.10;0.85;;;;;;;8.79;69.17;100174.17;1653836;85;21073;-59
2021/09/21 09:54:45;;;;;;;2.20;0.20;;;;;;;8.85;68.86;100172.11;1646882;85;21611;-57
2021/09/21 09:57:17;;;;;;;1.37;0.57;;;;;;;8.88;68.54;100165.11;1690961;83;20958;-58
2021/09/21 09:59:43;;;;;;;4.37;0.50;;;;;;;8.86;68.69;100175.10;1695007;83;21074;-59
2021/09/21 10:02:12;;;;;;;3.83;0.70;;;;;;;8.81;68.61;100172.16;1622730;87;21019;-59
2021/09/21 10:04:41;;;;;;;9.10;0.77;;;;;;;8.77;68.85;100169.84;1614725;87;21113;-59
2021/09/21 10:07:10;;;;;;;13.13;1.57;;;;;;;8.77;69.24;100177.82;1614574;87;21092;-64
2021/09/21 10:09:37;;;;;;;4.17;1.50;;;;;;;8.79;69.50;100176.31;1613856;87;21060;-59
2021/09/21 10:12:06;;;;;;;3.37;0.80;;;;;;;8.88;69.75;100175.75;1624532;86;20999;-60
2021/09/21 10:14:34;;;;;;;4.20;0.40;;;;;;;8.93;69.45;100174.20;1635413;86;21185;-57
2021/09/21 10:17:05;;;;;;;2.70;0.37;;;;;;;8.92;68.80;100176.52;1613778;87;21059;-59
2021/09/21 10:19:35;;;;;;;6.90;0.97;;;;;;;8.87;68.98;100176.73;1622467;87;21063;-58
2021/09/21 10:22:03;;;;;;;0.60;0.50;;;;;;;8.82;68.83;100180.47;1606972;87;21088;-59
2021/09/21 10:24:44;;;;;;;0.60;0.30;;;;;;;8.78;68.82;100177.34;1670196;84;21086;-59
2021/09/21 10:27:15;;;;;;;0.37;0.37;;;;;;;8.76;68.75;100184.67;1669560;84;21061;-58
2021/09/21 10:29:43;;;;;;;4.97;0.80;;;;;;;8.77;69.01;100184.46;1612267;87;21043;-61
2021/09/21 10:32:14;;;;;;;0.88;0.50;;;;;;;8.82;68.96;100181.28;1607626;87;21146;-58
2021/09/21 10:34:48;;;;;;;3.60;0.53;;;;;;;8.84;68.97;100181.92;1668412;82;21108;-58
2021/09/21 10:37:18;;;;;;;2.10;0.30;;;;;;;8.81;69.23;100183.60;1669728;84;21097;-57
2021/09/21 10:39:46;;;;;;;3.87;0.60;;;;;;;8.77;69.65;100193.77;1648906;85;21051;-57
2021/09/21 10:42:17;;;;;;;0.77;0.50;;;;;;;8.75;69.85;100193.13;1602617;88;21073;-59
2021/09/21 10:44:54;;;;;;;4.33;0.30;;;;;;;8.79;69.39;100194.10;1666269;84;21109;-58
2021/09/21 10:47:27;;;;;;;5.10;0.82;;;;;;;8.84;69.47;100191.73;1630774;85;21197;-59
2021/09/21 10:50:16;;;;;;;5.47;0.93;;;;;;;8.97;69.09;100193.27;1663230;84;21109;-60
2021/09/21 10:52:43;;;;;;;2.02;0.72;;;;;;;9.02;68.89;100188.21;1660699;84;21085;-58
2021/09/21 10:55:12;;;;;;;4.63;0.67;;;;;;;9.00;68.89;100192.07;1665420;84;21083;-59
2021/09/21 10:57:47;;;;;;;0.77;0.30;;;;;;;8.98;69.21;100190.91;1651530;85;21026;-56
2021/09/21 11:00:20;;;;;;;4.50;0.93;;;;;;;9.00;69.55;100196.87;1668545;84;21065;-57
2021/09/21 11:02:52;;;;;;;4.63;1.03;;;;;;;9.03;69.32;100193.86;1702691;82;20978;-60
2021/09/21 11:05:26;;;;;;;1.27;0.40;;;;;;;9.06;69.52;100193.52;1701021;82;21066;-59
2021/09/21 11:07:56;;;;;;;9.80;0.93;;;;;;;9.18;68.69;100193.06;1693515;82;21108;-57
2021/09/21 11:10:35;;;;;;;2.67;0.57;;;;;;;9.20;68.34;100190.53;1704151;82;21070;-59
2021/09/21 11:13:13;;;;;;;2.60;0.50;;;;;;;9.15;68.65;100191.09;1706737;82;21103;-57
2021/09/21 11:15:43;;;;;;;2.03;0.73;;;;;;;9.08;68.71;100186.66;1692990;82;22310;-57
2021/09/21 11:18:14;;;;;;;6.83;1.43;;;;;;;9.08;69.05;100189.31;1693677;82;21153;-58
2021/09/21 11:20:59;;;;;;;3.37;0.83;;;;;;;9.07;68.59;100195.66;1694923;82;21057;-59
2021/09/21 11:23:29;;;;;;;1.30;0.27;;;;;;;8.99;68.39;100193.91;1703422;81;21018;-60
2021/09/21 11:26:00;;;;;;;2.77;0.70;;;;;;;9.00;68.46;100196.06;1707798;82;21141;-59
2021/09/21 11:28:30;;;;;;;1.07;0.30;;;;;;;8.93;68.48;100197.30;1704555;82;21059;-59
2021/09/21 11:31:00;;;;;;;0.67;0.40;;;;;;;8.90;68.62;100190.49;1705549;82;21014;-58
2021/09/21 11:33:36;;;;;;;9.97;0.60;;;;;;;8.93;68.90;100203.95;1702191;82;21098;-57
2021/09/21 11:36:09;;;;;;;3.83;0.70;;;;;;;8.95;68.75;100211.23;1704313;82;21489;-58
2021/09/21 11:38:42;;;;;;;1.30;0.70;;;;;;;8.96;69.12;100206.23;1708335;82;21104;-58
2021/09/21 11:41:09;;;;;;;2.10;0.40;;;;;;;9.04;68.75;100200.84;1702553;82;21457;-58
2021/09/21 11:43:39;;;;;;;0.57;0.30;;;;;;;9.13;68.03;100202.90;1703775;82;21037;-57
2021/09/21 11:46:06;;;;;;;2.20;1.23;;;;;;;9.18;67.90;100203.70;1650387;82;21121;-59
2021/09/21 11:48:33;;;;;;;4.00;0.80;;;;;;;9.18;68.12;100207.69;1632138;86;21078;-60
2021/09/21 11:50:59;;;;;;;2.60;0.72;;;;;;;9.18;67.97;100211.16;1642353;86;21669;-57
2021/09/21 11:53:27;;;;;;;4.78;0.95;;;;;;;9.20;68.25;100210.98;1640606;86;21068;-61